Date,TemperatureHighF,TemperatureAvgF,TemperatureLowF,DewpointHighF,DewpointAvgF,DewpointLowF,HumidityHigh,HumidityAvg,HumidityLow,PressureMaxIn,PressureMinIn,WindSpeedMaxMPH,WindSpeedAvgMPH,GustSpeedMaxMPH,PrecipitationSumIn
2013-1-1,89.8,49.9,45.2,75.0,42.8,0.0,100,78,48,30.70,29.98,121,2,121,0.22
2013-1-2,89.8,49.6,32.0,49.1,45.8,0.0,95,88,73,30.87,29.90,121,1,121,0.22
2013-1-3,46.4,42.6,30.4,41.6,38.3,27.4,90,85,79,30.30,30.12,5,0,5,0.00
2013-1-4,50.8,35.6,24.3,33.4,26.5,21.4,92,72,42,30.38,30.24,9,1,9,0.00
2013-1-5,89.8,37.8,22.9,34.8,26.2,0.0,87,65,36,31.14,30.25,121,0,121,0.00
2013-1-6,89.8,45.1,32.0,42.5,36.7,0.0,100,75,63,31.01,30.08,121,2,121,0.23
2013-1-7,52.4,37.8,26.3,33.8,28.6,23.2,91,71,46,30.45,30.23,9,0,9,0.00
2013-1-8,57.4,43.8,27.9,41.7,35.2,23.7,89,73,53,30.48,30.38,4,0,4,0.00
2013-1-9,67.5,51.5,36.0,51.2,43.4,32.7,91,75,53,30.48,30.38,5,0,5,0.00
2013-1-10,89.8,57.1,44.3,53.4,47.1,0.0,91,71,49,31.23,30.39,121,2,121,0.00
2013-1-11,55.3,52.5,49.7,51.5,49.7,47.0,94,90,78,30.40,30.19,7,2,7,0.00
2013-1-12,76.5,61.3,52.0,64.5,56.1,49.5,96,84,60,30.20,30.12,12,2,12,0.01
2013-1-13,76.0,63.4,51.8,63.0,57.4,49.8,95,82,59,30.17,30.08,13,3,13,0.00
2013-1-14,71.6,64.7,60.7,65.5,60.4,57.0,93,86,79,30.17,30.09,9,2,9,0.03
2013-1-15,89.8,51.8,46.1,60.7,48.8,0.0,95,91,85,30.95,30.08,122,4,122,0.28
2013-1-16,53.3,48.4,44.5,51.3,46.8,42.9,95,94,93,30.09,29.99,6,2,6,0.23
2013-1-17,52.9,47.8,34.9,51.6,46.1,32.8,96,94,89,30.22,29.79,18,4,18,2.13
2013-1-18,49.9,37.3,28.4,35.2,28.7,22.1,95,75,36,30.54,30.21,9,2,9,0.12
2013-1-19,56.2,38.1,23.4,34.5,28.0,20.4,91,70,34,30.51,30.20,9,2,9,0.01
2013-1-20,89.8,38.5,29.2,38.4,29.9,0.0,90,74,34,30.93,30.04,122,2,122,2.77
2013-1-21,60.8,44.2,27.9,38.4,28.3,18.0,89,59,29,30.11,29.94,12,3,12,0.00
2013-1-22,46.3,37.0,26.6,19.6,11.4,1.7,48,35,17,30.28,30.03,10,3,10,0.00
2013-1-23,47.0,33.0,19.8,27.4,16.3,9.3,77,52,33,30.39,30.08,12,2,12,0.00
2013-1-24,50.8,38.8,26.3,35.6,19.5,5.3,85,49,29,30.52,30.00,14,4,14,0.00
2013-1-25,29.5,25.7,20.0,23.6,15.0,5.4,84,65,41,30.53,30.14,8,2,8,0.01
2013-1-26,46.8,32.6,23.8,36.4,26.6,19.7,91,79,56,30.39,30.12,7,2,7,0.02
2013-1-27,89.8,35.7,26.3,31.8,27.2,0.0,91,73,49,31.20,30.39,122,2,122,0.01
2013-1-28,51.3,43.3,32.8,47.5,36.1,27.7,89,76,64,30.51,30.29,12,2,12,0.00
2013-1-29,73.3,56.9,39.1,59.5,50.3,36.4,94,80,58,30.29,30.07,14,3,14,0.00
2013-1-30,77.4,67.1,51.8,64.4,60.5,47.0,90,80,58,30.08,29.48,19,6,19,0.63
2013-1-31,51.8,45.9,37.4,47.5,29.7,19.2,86,55,32,30.07,29.60,21,6,21,0.01
2013-2-1,43.2,37.8,24.5,29.1,14.8,3.8,59,41,21,30.41,29.97,15,5,15,0.00
2013-2-2,49.0,35.1,20.5,35.3,18.2,11.2,81,53,27,30.42,30.07,16,3,16,0.00
2013-2-3,57.1,43.3,31.1,36.0,29.9,21.0,88,62,32,30.08,29.89,14,4,14,0.00
2013-2-4,52.9,38.5,24.5,29.6,25.1,19.5,84,61,37,30.17,30.04,8,2,8,0.00
2013-2-5,66.1,48.7,31.1,43.9,34.7,24.3,80,60,40,30.04,29.90,14,3,14,0.00
2013-2-6,64.4,46.6,31.9,41.8,31.0,26.9,93,60,25,30.25,30.01,8,2,8,0.00
2013-2-7,47.2,43.8,40.7,40.8,35.3,26.8,93,73,46,30.30,29.99,11,4,11,0.46
2013-2-8,62.1,48.2,40.0,48.5,39.1,29.0,93,73,45,30.13,29.89,14,4,14,0.04
2013-2-9,59.4,41.7,27.4,30.5,22.2,14.2,87,52,18,30.37,30.13,9,2,9,0.00
2013-2-10,61.0,45.5,30.1,45.9,31.1,20.2,86,60,27,30.47,30.22,7,2,7,0.12
2013-2-11,62.8,57.8,49.9,59.5,54.5,45.9,94,89,83,30.22,29.99,16,4,16,0.08
2013-2-12,64.1,52.9,43.6,50.3,40.1,28.4,94,67,28,30.14,29.94,8,2,8,0.07
2013-2-13,50.2,47.3,38.5,47.1,43.7,34.1,93,87,72,29.98,29.69,14,3,14,0.07
2013-2-14,54.4,41.0,28.8,39.7,33.1,26.3,93,75,50,30.10,29.91,10,2,10,0.00
2013-2-15,89.8,45.4,28.3,42.0,32.0,0.0,92,64,30,30.89,29.96,122,3,122,0.00
2013-2-16,48.8,37.6,26.8,36.0,32.2,23.7,92,81,61,30.03,29.86,9,2,9,0.14
2013-2-17,42.1,29.9,19.6,23.9,19.1,13.2,88,67,32,30.29,30.03,15,2,15,0.19
2013-2-18,55.8,37.7,19.6,30.9,23.6,15.2,87,60,34,30.41,30.25,9,2,9,0.02
2013-2-19,50.6,41.4,32.9,44.6,35.2,25.0,91,79,59,30.25,29.92,15,3,15,0.23
2013-2-20,56.5,39.3,23.4,31.6,23.2,14.6,92,59,20,30.15,30.04,8,2,8,0.00
2013-2-21,59.4,42.3,24.8,32.8,23.0,17.6,77,49,24,30.29,30.12,8,2,8,0.00
2013-2-22,47.9,39.8,37.6,37.0,35.1,26.0,94,85,44,30.33,30.13,9,3,9,0.28
2013-2-23,44.5,41.1,37.8,42.4,39.1,35.7,94,92,90,30.17,29.87,6,2,6,0.48
2013-2-24,64.8,49.7,37.3,45.3,39.9,32.3,95,73,34,30.05,29.86,12,3,12,0.04
2013-2-25,44.3,41.1,34.6,32.6,28.1,25.4,86,60,53,30.21,30.04,14,4,14,0.00
2013-2-26,48.2,40.4,34.7,46.8,37.4,26.0,96,89,57,30.10,29.60,11,3,11,0.83
2013-2-27,89.8,47.2,33.8,41.5,37.7,0.0,94,72,50,30.58,29.68,122,4,122,0.17
2013-2-28,53.3,42.9,32.0,35.9,28.9,23.2,87,60,37,29.93,29.76,12,3,12,0.17
2013-3-1,50.0,39.9,26.6,31.3,27.8,22.1,86,63,46,29.96,29.89,10,2,10,0.17
2013-3-2,47.5,39.8,33.1,39.1,31.8,24.7,88,73,62,29.97,29.86,10,2,10,0.17
2013-3-3,49.0,35.3,22.7,26.2,20.9,16.8,89,59,32,30.04,29.91,11,3,11,0.17
2013-3-4,56.3,38.2,21.1,27.1,19.3,14.8,80,50,23,30.17,30.04,11,2,11,0.17
2013-3-5,60.8,47.6,34.0,53.2,38.1,24.9,93,70,60,30.10,29.63,11,3,11,0.39
2013-3-6,50.6,42.9,34.7,45.9,27.8,22.9,92,56,39,30.15,29.64,17,5,17,0.17
2013-3-7,58.0,41.2,26.1,31.7,26.7,21.1,85,59,35,30.30,30.15,11,3,11,0.17
2013-3-8,58.5,43.0,27.9,27.3,24.3,19.7,76,50,27,30.36,30.22,12,3,12,0.17
2013-3-9,66.6,46.6,27.9,35.4,28.7,21.0,79,52,29,30.38,30.26,9,2,9,0.17
2013-3-10,71.5,51.9,33.5,42.1,35.1,28.3,84,56,30,30.33,30.19,8,2,9,0.00
2013-3-11,73.6,57.9,42.5,53.4,42.2,24.8,83,56,44,30.23,29.90,14,3,14,0.17
2013-3-12,72.4,62.2,50.9,59.1,49.3,28.0,93,67,32,30.02,29.79,14,4,14,0.53
2013-3-13,59.8,46.5,33.1,35.8,26.7,18.8,84,49,28,30.18,30.00,14,3,14,0.17
2013-3-14,55.4,41.7,29.0,23.8,18.5,15.1,61,41,23,30.32,30.17,13,3,13,0.17
2013-3-15,71.5,48.5,28.1,40.6,29.5,20.2,79,51,31,30.25,29.94,14,3,14,0.17
2013-3-16,81.2,67.3,56.9,48.6,43.0,38.5,59,43,26,29.95,29.76,20,6,20,0.17
2013-3-17,80.6,61.9,47.9,53.4,44.4,37.5,72,54,34,30.12,29.89,14,4,14,0.17
2013-3-18,49.3,45.7,43.2,40.8,40.1,39.3,90,81,72,30.16,30.11,11,4,11,0.00
2013-3-19,67.9,49.4,42.1,46.8,39.4,25.6,95,76,21,29.98,29.88,9,3,12,0.00
2013-3-24,89.8,41.2,39.6,38.1,36.7,0.0,93,89,91,30.46,29.61,122,5,122,9.37
2013-3-25,48.8,42.8,39.4,39.1,30.6,21.3,94,66,37,29.93,29.58,16,4,16,0.05
2013-3-26,49.5,40.1,26.8,27.7,24.6,20.5,78,55,40,30.21,29.92,10,3,10,0.00
2013-3-27,58.7,41.6,25.6,29.1,23.0,20.0,82,51,27,30.29,30.19,13,3,13,0.00
2013-3-28,62.5,43.1,26.3,27.9,22.1,18.4,80,47,21,30.34,30.21,12,3,12,0.00
2013-3-29,64.3,47.4,27.2,36.1,26.6,20.6,81,49,23,30.38,30.21,12,3,12,0.00
2013-3-30,72.4,56.4,47.2,49.0,43.4,36.3,88,64,39,30.26,30.09,9,2,9,0.17
2013-3-31,74.3,61.1,51.5,57.7,51.4,44.5,91,72,47,30.10,29.85,20,4,20,0.28
2013-4-1,75.4,63.9,51.8,56.6,45.9,33.9,91,58,25,30.00,29.87,14,3,14,0.03
2013-4-2,73.8,54.7,39.6,39.5,34.5,21.0,78,50,23,30.20,29.99,11,3,11,0.00
2013-4-3,89.8,55.2,47.5,28.9,23.3,0.0,41,29,23,30.96,30.14,122,4,122,0.00
2013-4-4,51.1,43.8,38.2,38.8,32.8,21.9,93,69,35,30.30,29.99,14,4,14,0.95
2013-4-5,72.4,50.2,38.0,48.3,41.1,35.6,93,74,37,30.08,29.92,11,2,11,0.00
2013-4-6,80.8,54.9,34.9,43.4,37.4,31.4,93,57,25,30.26,30.08,9,2,9,0.00
2013-4-7,75.8,59.6,42.8,51.2,44.3,0.0,74,58,38,30.31,30.14,14,3,14,0.00
2013-4-8,82.0,67.2,50.8,57.5,52.0,46.8,86,61,35,30.22,30.10,15,4,15,0.00
2013-4-9,88.9,70.5,52.4,61.2,54.9,0.0,86,60,39,30.93,30.13,122,3,122,10.86
2013-4-10,87.5,73.3,58.6,62.2,57.9,53.6,87,61,39,30.17,30.00,11,4,11,0.00
2013-4-11,88.9,71.7,60.2,66.3,60.1,0.0,87,68,48,30.62,29.81,122,4,122,0.02
2013-4-12,88.9,72.1,59.7,67.3,57.4,0.0,93,65,29,30.56,29.69,122,6,122,0.19
2013-4-13,78.4,61.7,44.5,48.3,41.8,37.6,84,51,25,30.07,29.88,9,2,9,0.19
2013-4-14,80.0,62.6,44.8,52.8,45.8,39.9,86,58,29,30.12,30.02,10,2,10,0.19
2013-4-15,74.4,65.7,58.6,61.2,56.7,51.4,88,73,58,30.23,30.01,6,2,6,0.19
2013-4-16,80.0,68.6,60.6,63.9,58.8,55.3,87,72,50,30.34,30.23,7,2,7,0.19
2013-4-17,85.7,70.4,56.5,65.1,59.1,53.0,90,70,39,30.30,30.14,9,2,9,0.19
2013-4-18,83.1,71.4,61.9,65.1,60.9,57.3,87,71,48,30.22,30.04,11,2,11,0.19
2013-4-19,83.3,69.4,55.6,68.2,62.2,50.2,88,79,55,30.05,29.80,21,5,21,0.28
2013-4-20,65.4,54.6,44.3,50.9,38.3,30.9,85,57,30,30.30,29.95,10,2,10,0.19
2013-4-21,66.3,52.9,39.0,42.5,38.9,34.8,87,61,40,30.47,30.30,12,3,12,0.19
2013-4-22,65.2,52.8,42.4,40.2,33.8,28.0,76,51,26,30.46,30.25,12,4,12,0.19
2013-4-23,70.6,57.9,45.0,53.1,46.3,35.2,80,66,53,30.31,30.15,9,2,9,0.19
2013-4-24,78.8,63.6,50.3,60.0,53.4,46.6,89,71,46,30.20,30.06,12,4,12,0.00
2013-4-25,72.9,62.2,49.0,56.9,45.1,35.6,83,56,29,30.31,30.09,13,3,13,0.00
2013-4-26,74.3,58.6,43.5,46.1,39.4,32.6,78,52,29,30.47,30.31,13,2,13,0.00
2013-4-27,70.0,59.4,55.4,54.3,50.1,44.6,89,72,53,30.41,30.28,8,2,8,0.31
2013-4-28,61.5,56.9,54.8,58.8,54.4,52.2,94,91,88,30.30,30.10,8,2,8,1.86
2013-4-29,75.7,64.0,57.0,65.2,59.3,55.0,95,85,65,30.10,29.98,9,2,9,0.22
2013-4-30,73.1,63.3,55.2,63.1,58.1,52.9,94,84,64,30.21,30.03,9,2,9,0.00
2013-5-1,66.6,60.1,52.2,57.8,54.8,49.5,92,83,73,30.33,30.21,11,4,11,0.00
2013-5-2,65.2,59.7,57.0,59.6,56.2,54.6,94,88,80,30.34,30.25,12,4,12,0.11
2013-5-3,70.2,61.9,55.4,55.6,53.0,50.4,87,74,55,30.27,30.15,14,4,14,0.00
2013-5-4,64.6,58.8,50.3,52.0,49.6,43.5,80,72,61,30.16,30.03,15,4,15,0.00
2013-5-5,60.1,55.6,52.4,58.7,52.2,48.0,95,88,78,30.06,29.88,13,4,13,0.41
2013-5-6,73.3,63.7,56.1,62.3,56.2,48.3,95,78,51,29.95,29.86,12,3,12,0.66
2013-5-7,73.5,59.2,45.0,55.5,49.8,41.7,91,73,49,30.01,29.91,12,3,12,0.00
2013-5-8,78.8,64.6,50.8,59.4,55.0,47.7,91,73,47,30.06,29.97,13,3,13,0.00
2013-5-9,83.3,67.5,52.4,60.0,55.4,49.2,90,68,40,30.13,30.04,11,2,11,0.00
2013-5-10,88.9,66.8,55.6,64.1,57.5,0.0,90,74,43,30.89,30.01,122,3,122,0.00
2013-5-11,82.9,73.1,64.7,64.9,61.1,58.2,85,67,51,30.02,29.87,13,4,13,0.11
2013-5-12,76.2,66.4,57.2,60.9,48.6,27.3,90,58,19,30.10,29.89,14,3,14,0.01
2013-5-13,70.4,57.4,44.2,45.2,37.1,29.1,82,50,25,30.22,30.09,14,2,14,0.00
2013-5-14,75.2,59.0,40.8,45.3,40.7,35.3,85,54,30,30.31,30.13,12,3,12,0.00
2013-5-15,90.4,71.7,53.1,62.4,55.0,43.6,81,58,38,30.14,29.99,10,3,10,0.00
2013-5-16,88.9,73.6,58.6,62.4,58.5,0.0,84,61,40,30.82,29.99,122,3,122,0.00
2013-5-17,88.2,73.2,59.5,66.3,60.8,55.6,88,67,42,30.14,30.06,8,3,8,0.00
2013-5-18,77.0,71.0,64.7,65.1,62.7,59.6,85,75,64,30.20,30.12,9,2,9,0.00
2013-5-19,82.7,70.6,66.3,70.3,65.8,62.5,93,85,64,30.18,30.09,9,2,9,0.43
2013-5-20,82.4,72.8,67.2,71.4,67.5,64.7,94,84,65,30.18,30.06,7,2,7,0.31
2013-5-21,85.9,72.2,66.1,73.7,67.3,63.0,94,85,63,30.11,30.00,15,2,15,0.48
2013-5-22,88.9,73.2,66.3,70.5,64.9,0.0,93,78,56,30.86,29.91,122,5,122,0.51
2013-5-23,88.9,67.7,64.6,69.3,63.7,0.0,93,88,65,30.76,29.86,122,2,122,0.69
2013-5-24,73.5,67.0,53.7,62.7,50.8,37.4,90,60,29,30.25,29.89,12,3,12,0.17
2013-5-25,78.2,61.2,44.2,50.6,44.5,38.2,86,58,29,30.36,30.17,9,2,9,0.17
2013-5-26,77.5,64.8,55.6,52.6,47.3,41.5,82,55,35,30.34,30.19,10,2,10,0.17
2013-5-27,83.8,68.6,52.6,59.6,55.2,48.5,88,65,39,30.32,30.17,7,2,7,0.17
2013-5-28,86.0,74.7,63.5,66.3,62.5,58.5,87,67,49,30.30,30.17,13,3,13,0.17
2013-5-29,86.6,73.6,61.0,65.6,61.3,56.1,86,67,46,30.32,30.18,8,3,8,0.17
2013-5-30,86.2,73.8,61.3,65.9,61.8,57.1,88,68,44,30.35,30.19,8,4,8,0.17
2013-5-31,88.6,76.5,65.0,68.9,65.2,61.3,89,69,48,30.30,30.13,9,3,9,0.17
2013-6-1,89.3,77.6,67.0,68.1,65.5,63.0,88,68,45,30.20,30.04,11,3,11,0.17
2013-6-2,87.5,76.5,69.3,69.3,66.1,63.3,89,71,50,30.13,29.92,11,4,11,1.39
2013-6-3,85.1,73.7,67.3,72.7,68.1,64.5,93,84,60,30.02,29.86,8,2,8,1.16
2013-6-4,83.8,74.5,66.3,69.4,66.2,63.9,93,77,58,30.13,29.96,8,2,8,0.17
2013-6-5,80.9,72.5,67.0,70.8,67.0,63.7,91,83,70,30.16,30.01,6,2,6,0.17
2013-6-6,79.7,72.6,68.6,74.2,69.4,66.4,93,90,81,30.05,29.84,10,2,10,0.41
2013-6-7,82.7,72.1,67.5,73.6,68.1,64.4,95,88,72,29.91,29.64,10,3,13,0.87
2013-6-8,84.7,74.3,67.2,71.8,68.2,65.4,95,82,62,30.15,29.85,8,2,8,0.17
2013-6-9,87.3,74.5,65.7,72.5,68.1,63.5,93,81,59,30.21,30.07,7,2,7,0.17
2013-6-10,88.9,74.6,68.8,74.1,70.5,0.0,93,88,69,30.74,29.92,122,4,122,5.61
2013-6-11,87.7,76.8,68.6,72.6,67.2,63.4,93,74,47,30.06,29.93,12,3,12,0.12
2013-6-12,92.7,78.5,64.6,74.8,69.3,61.5,92,75,53,30.08,29.88,12,3,12,0.12
2013-6-13,94.4,81.5,70.9,74.2,71.1,0.0,92,73,45,30.49,29.66,122,4,122,5.92
2013-6-14,83.1,71.9,60.8,68.1,59.8,53.5,93,69,38,30.09,29.76,10,2,10,0.17
2013-6-15,86.6,72.5,59.0,64.8,60.6,55.8,90,69,42,30.20,30.01,8,2,8,0.17
2013-6-16,88.6,75.8,63.1,69.4,65.0,58.3,88,70,49,30.22,30.00,12,3,12,0.17
2013-6-17,88.4,76.2,70.4,72.6,67.9,64.0,90,76,58,30.11,29.91,9,3,9,0.17
2013-6-18,88.9,76.2,70.2,73.6,69.5,0.0,92,81,60,30.71,29.76,122,4,122,0.06
2013-6-19,85.1,75.5,69.3,69.1,66.1,60.2,91,74,47,30.17,29.86,8,2,8,0.00
2013-6-20,83.8,74.0,65.9,66.5,64.1,61.8,91,73,51,30.28,30.05,8,3,8,0.00
2013-6-21,83.6,72.5,62.0,64.7,61.2,58.1,88,69,47,30.32,30.05,8,2,8,0.00
2013-6-22,84.8,73.5,62.2,69.7,64.8,57.6,89,75,56,30.27,30.17,9,2,9,0.00
2013-6-23,85.1,76.5,68.6,73.7,69.1,65.6,90,78,63,30.27,30.19,7,2,7,0.00
2013-6-24,86.2,74.9,70.6,75.1,70.6,67.2,93,87,66,30.28,30.17,11,2,11,0.68
2013-6-25,92.5,78.5,70.9,74.7,70.6,68.5,93,78,52,30.20,30.08,9,3,9,0.00
2013-6-26,92.0,79.3,70.0,74.9,70.3,66.8,91,75,53,30.11,29.96,9,3,9,0.00
2013-6-27,91.6,79.4,72.0,75.9,71.5,66.3,92,78,54,30.02,29.80,21,3,21,0.35
2013-6-28,93.1,80.4,70.2,76.7,71.1,0.0,95,77,51,29.83,29.66,9,3,9,0.04
2013-6-29,87.8,78.2,70.9,73.7,70.2,67.6,92,78,59,29.79,29.70,8,3,8,0.01
2013-6-30,85.1,75.1,67.0,74.8,69.8,64.4,93,84,66,29.91,29.77,11,2,11,0.98
2013-7-1,82.4,74.3,67.2,73.3,69.4,65.1,94,85,71,30.05,29.88,6,2,6,0.09
2013-7-2,81.1,74.2,71.7,73.6,70.3,68.7,92,88,74,30.20,30.04,8,2,8,0.11
2013-7-3,82.7,75.6,72.4,75.8,72.3,69.9,95,90,77,30.28,30.18,8,2,8,0.13
2013-7-4,88.9,78.1,72.9,75.6,72.5,0.0,94,84,59,31.08,30.20,122,2,122,0.09
2013-7-5,85.5,77.6,72.9,75.3,72.6,70.4,93,85,69,30.31,30.23,8,2,8,0.03
2013-7-6,84.8,76.4,70.2,77.2,71.8,67.8,94,86,69,30.30,30.17,9,2,9,8.87
2013-7-7,88.2,77.9,70.9,77.7,72.6,68.8,95,85,66,30.24,30.12,15,2,15,0.44
2013-7-8,85.7,78.0,71.7,76.0,72.5,69.2,95,84,67,30.25,30.16,7,2,7,0.03
2013-7-9,90.9,80.1,72.6,76.7,73.0,70.1,94,80,60,30.22,30.11,8,3,8,0.00
2013-7-10,88.7,78.0,70.0,76.3,71.8,66.9,91,82,65,30.19,30.02,10,3,10,0.13
2013-7-11,82.5,74.9,70.8,76.6,71.3,68.1,93,89,80,30.03,29.93,6,2,6,0.39
2013-7-12,88.9,75.0,70.2,74.1,70.2,0.0,94,86,72,30.77,29.87,122,2,122,1.00
2013-7-13,80.9,74.3,70.2,72.3,69.5,66.9,94,85,72,30.11,30.00,9,3,9,1.07
2013-7-14,85.7,76.4,70.4,75.0,71.5,68.6,95,86,64,30.28,30.08,10,3,10,1.81
2013-7-15,86.9,77.8,69.3,74.3,70.9,67.2,94,81,60,30.32,30.23,7,3,7,0.98
2013-7-16,92.2,80.7,69.7,75.4,71.4,0.0,93,75,53,31.03,30.20,122,3,122,1.91
2013-7-17,89.3,76.4,70.6,76.7,70.4,0.0,90,83,66,30.98,30.13,122,-961,243,1.91
2013-7-18,92.2,78.5,68.2,77.8,72.0,66.1,94,81,59,30.18,30.06,0,-999,0,1.91
2013-7-19,92.0,81.3,73.8,76.7,73.4,70.2,92,78,58,30.12,29.99,0,-999,0,1.91
2013-7-20,88.2,79.6,74.3,76.3,72.7,70.1,89,80,66,30.06,29.93,0,-999,0,1.91
2013-7-21,92.2,78.5,73.1,76.6,72.1,69.8,91,82,59,30.03,29.90,0,-999,0,1.91
2013-7-22,88.7,77.9,70.9,75.5,72.0,68.4,93,83,63,30.00,29.85,0,-999,0,1.91
2013-7-23,90.5,80.2,73.6,74.1,71.4,68.8,90,76,54,29.87,29.77,0,-999,0,1.91
2013-7-24,90.2,77.5,70.2,75.3,70.1,65.7,93,79,53,29.87,29.75,0,-999,0,1.91
2013-7-25,88.9,76.5,69.9,71.6,68.5,0.0,93,78,62,30.67,29.87,0,-999,0,0.99
2013-7-26,87.8,76.2,66.6,71.7,68.1,64.2,93,78,55,30.11,30.01,0,-999,0,0.99
2013-7-27,83.1,74.7,71.5,74.5,70.4,67.0,92,87,74,30.04,29.92,0,-999,0,1.30
2013-7-28,88.0,78.2,70.4,74.1,70.9,68.0,93,80,59,30.00,29.92,0,-999,0,0.99
2013-7-29,86.4,77.5,70.4,71.0,69.0,66.1,92,76,56,30.16,30.00,0,-999,0,0.99
2013-7-30,87.3,76.4,69.1,69.9,67.5,63.6,92,75,51,30.22,30.12,0,-999,0,0.99
2013-7-31,84.7,74.7,71.1,73.2,69.6,66.1,93,85,65,30.16,30.00,0,-999,0,1.42
2013-8-1,87.7,75.9,71.1,75.9,71.4,68.2,93,86,62,30.00,29.88,0,-999,0,1.11
2013-8-2,87.3,77.1,68.4,73.7,70.2,66.3,95,80,60,30.03,29.92,0,-999,0,0.98
2013-8-3,91.1,79.8,72.4,76.6,71.8,0.0,94,79,55,30.83,29.94,0,-999,0,0.98
2013-8-4,86.2,77.0,69.3,72.5,67.9,64.5,93,75,51,30.02,29.93,0,-999,0,0.98
2013-8-5,88.2,76.6,68.1,69.9,66.7,64.7,91,73,48,30.08,29.98,0,-999,0,0.98
2013-8-6,88.9,72.2,68.4,70.4,66.9,0.0,92,84,74,30.86,29.98,0,-999,0,1.45
2013-8-7,88.9,76.6,70.0,73.6,69.2,0.0,92,80,60,30.88,30.01,0,-999,0,2.73
2013-8-8,89.8,78.5,72.7,76.2,71.8,0.0,90,81,63,30.84,30.00,0,-999,0,2.79
2013-8-9,91.1,80.3,73.3,77.6,73.5,70.0,92,80,61,30.08,30.01,0,-999,0,0.06
2013-8-10,93.9,80.4,73.6,78.0,73.4,0.0,93,81,56,30.84,30.04,0,-999,0,2.79
2013-8-11,93.9,80.5,72.2,75.8,72.4,69.3,92,78,51,30.13,30.03,0,-999,0,0.00
2013-8-12,94.2,81.1,70.9,75.7,72.1,68.1,93,76,50,30.08,29.95,0,-999,0,0.00
2013-8-13,91.6,79.6,72.4,77.2,71.8,68.2,91,78,57,29.98,29.81,0,-999,0,0.61
2013-8-14,88.9,72.6,66.1,70.8,64.8,0.0,93,78,56,30.79,29.86,0,-999,0,0.00
2013-8-15,75.0,68.1,62.4,61.6,58.7,55.7,86,73,54,30.14,30.05,0,-999,0,0.00
2013-8-16,69.3,64.7,60.1,63.0,59.6,56.0,89,84,71,30.16,30.07,0,-999,0,0.06
2013-8-17,66.8,64.3,61.7,65.1,62.0,59.2,95,92,84,30.18,30.12,0,-999,0,0.79
2013-8-18,84.2,73.1,65.7,73.2,68.4,64.0,95,86,67,30.21,30.12,0,-999,0,0.02
2013-8-19,78.0,72.3,67.7,71.6,68.5,64.0,93,88,79,30.19,30.08,0,-999,0,0.70
2013-8-20,88.9,72.8,64.6,73.2,67.5,0.0,88,83,74,30.97,30.10,0,-999,0,0.00
2013-8-21,88.4,75.9,70.4,76.8,69.2,63.2,85,80,67,30.23,30.11,0,-999,0,0.61
2013-8-22,90.2,77.9,68.8,75.2,68.6,59.8,84,73,56,30.16,30.01,0,-999,0,0.00
2013-8-23,88.0,76.1,69.0,73.8,66.0,59.7,82,71,54,30.07,29.96,0,-999,0,0.00
2013-8-24,81.6,72.2,64.0,65.3,61.1,56.8,78,69,48,30.29,30.06,0,-999,0,0.00
2013-8-25,80.2,68.9,59.0,63.3,57.3,50.5,78,67,49,30.39,30.27,0,-999,0,0.00
2013-8-26,84.4,68.7,55.6,65.5,57.1,46.7,75,67,47,30.32,30.12,0,-999,0,0.00
2013-8-27,88.7,74.1,61.7,72.3,62.1,51.2,72,66,53,30.15,29.99,0,-999,0,0.00
2013-8-28,90.5,78.0,67.7,74.1,64.7,54.2,67,64,57,30.02,29.93,0,-999,0,0.00
2013-8-29,92.3,80.6,72.0,73.3,65.4,56.0,66,60,51,29.98,29.89,0,-999,0,0.00
2013-8-30,88.0,77.7,70.9,67.5,62.9,56.0,66,61,48,30.06,29.94,0,-999,0,0.00
2013-8-31,90.0,73.3,67.7,74.2,59.0,0.0,66,61,55,30.75,29.86,0,-999,0,0.00
2013-9-1,90.4,77.0,69.0,74.1,58.7,47.3,61,53,43,29.92,29.80,0,-999,0,0.26
2013-9-2,88.9,77.3,70.4,74.2,49.9,16.5,64,41,11,29.92,29.81,0,-999,0,0.07
2013-9-3,88.9,79.0,70.4,72.1,36.3,-33.9,61,33,1,30.73,29.82,0,-999,0,5.91
2013-9-4,87.7,74.8,64.0,68.1,40.6,-37.8,61,36,1,30.09,29.96,0,-999,0,0.00
2013-9-5,88.9,74.8,64.8,69.6,29.4,-38.1,58,31,1,30.91,30.04,0,-999,0,0.00
2013-9-6,83.4,72.2,64.2,62.7,39.7,-37.5,61,37,2,30.18,30.07,0,-999,0,0.00
2013-9-7,86.2,71.7,61.0,66.6,40.3,-9.1,58,36,5,30.13,29.99,0,-999,0,0.00
2013-9-8,88.9,74.1,62.8,66.8,29.6,-39.3,57,29,1,30.00,29.92,0,-999,0,0.00
2013-9-9,89.8,75.6,65.2,66.9,25.5,-37.8,56,29,1,30.14,29.99,0,-999,0,0.00
2013-9-10,89.5,72.4,66.1,69.7,1.1,-37.3,56,14,1,31.02,30.14,0,-999,0,0.00
2013-9-11,89.3,75.9,65.2,68.6,19.7,-37.8,55,26,1,30.22,30.08,0,-999,0,0.00
2013-9-12,92.2,77.3,66.8,70.6,22.5,-36.9,55,26,1,30.83,29.85,0,-999,0,0.00
2013-9-13,86.4,76.1,67.5,61.4,25.1,-36.5,56,29,1,29.90,29.78,0,-999,0,0.00
2013-9-14,78.8,68.0,59.9,57.5,50.0,30.9,60,53,31,30.11,29.90,0,-999,0,0.00
2013-9-15,82.9,69.3,58.8,64.7,38.7,-5.4,57,36,6,30.20,30.09,0,-999,0,0.00
2013-9-16,86.8,76.7,67.5,64.7,17.6,-36.5,54,26,1,30.15,30.04,0,-999,0,0.00
2013-9-17,77.9,70.6,63.1,57.2,52.7,46.7,59,53,45,30.29,30.14,0,-999,0,0.00
2013-9-18,88.9,64.6,58.3,56.1,44.9,0.0,61,49,31,30.99,30.16,0,-999,0,5.91
2013-9-19,80.7,67.5,57.7,62.1,36.9,-5.2,59,37,7,30.19,30.08,0,-999,0,0.00
2013-9-20,86.6,72.8,62.0,66.9,28.1,-39.8,55,28,1,30.09,29.91,0,-999,0,0.00
2013-9-21,78.0,71.8,65.9,48.8,-6.4,-37.4,37,10,1,29.93,29.65,0,-999,0,1.69
2013-9-22,77.7,67.1,59.5,57.0,12.6,-41.4,59,27,1,29.91,29.65,0,-999,0,0.14
2013-9-23,77.0,64.4,55.7,58.6,6.0,-43.6,57,26,1,30.06,29.90,0,-999,0,0.00
2013-9-24,78.2,66.8,57.7,59.6,13.6,-42.4,55,28,1,30.08,29.93,0,-999,0,0.00
2013-9-25,69.9,65.2,62.0,33.1,-23.9,-39.8,26,4,1,29.95,29.86,0,-999,0,0.27
2013-9-26,75.9,66.0,57.2,57.3,5.1,-42.8,57,24,1,30.03,29.87,0,-999,0,0.00
2013-9-27,74.8,62.5,51.7,55.3,5.2,-46.1,58,25,1,30.17,30.02,0,-999,0,0.00
2013-9-28,72.0,60.8,51.7,53.3,7.5,-46.2,57,28,1,30.24,30.14,0,-999,0,0.00
2013-9-29,72.9,62.7,53.3,55.3,3.0,-45.0,56,22,1,30.16,30.02,0,-999,0,0.00
2013-9-30,75.9,62.6,53.1,56.9,-3.6,-45.3,56,20,1,30.09,29.99,0,-999,0,0.00
2013-10-1,82.2,66.0,53.1,60.8,0.2,-45.3,55,20,1,30.12,30.03,0,-999,0,0.00
2013-10-2,83.1,67.5,55.9,62.0,-1.8,-43.5,53,18,1,30.15,30.05,0,-999,0,0.00
2013-10-3,84.2,69.6,60.2,62.9,-2.1,-40.9,52,18,1,30.13,30.05,0,-999,0,0.00
2013-10-4,84.2,69.7,58.1,64.6,-4.9,-42.2,52,16,1,30.14,30.06,0,-999,0,0.00
2013-10-5,88.9,67.0,59.9,65.8,-22.3,-41.1,52,8,1,30.92,30.02,0,-999,0,8.04
2013-10-6,85.0,72.9,62.2,65.3,-2.2,-39.7,52,16,1,30.05,29.90,0,-999,0,0.00
2013-10-7,80.6,73.3,67.2,47.7,-20.2,-34.4,49,7,1,29.99,29.82,0,-999,0,0.24
2013-10-8,67.2,62.7,60.1,47.8,45.2,39.4,57,53,46,30.18,29.98,0,-999,0,0.00
2013-10-9,71.3,62.1,53.5,53.8,43.3,17.9,57,51,24,30.19,30.09,0,-999,0,0.00
2013-10-10,72.7,64.5,55.2,51.9,35.2,-36.6,52,36,2,30.10,29.96,0,-999,0,0.00
2013-10-11,88.9,70.6,62.0,59.5,27.1,-39.8,56,30,1,30.78,29.90,0,-999,0,0.00
2013-10-12,74.7,67.6,58.1,55.3,-5.9,-42.2,51,15,1,30.08,29.95,0,-999,0,0.00
2013-10-13,70.2,67.4,64.8,-22.3,-36.3,-38.1,2,1,1,30.20,30.07,0,-999,0,0.00
2013-10-14,70.2,65.3,61.7,-4.4,-37.7,-40.0,5,1,1,30.22,30.14,0,-999,0,0.01
2013-10-15,73.8,64.6,56.8,53.7,-3.4,-43.0,53,18,1,30.18,30.03,0,-999,0,0.00
2013-10-16,75.3,63.5,52.4,50.6,-20.7,-45.7,42,8,1,30.07,29.94,0,-999,0,0.00
2013-10-17,88.9,65.6,60.2,0.0,-37.4,-40.9,1,1,1,30.68,29.86,0,-999,0,8.31
2013-10-18,69.1,63.8,58.1,47.5,-9.2,-42.2,48,14,1,30.02,29.88,0,-999,0,0.01
2013-10-19,70.0,63.0,55.2,48.8,-21.1,-44.0,48,8,1,29.96,29.83,0,-999,0,0.02
2013-10-20,67.2,54.4,44.5,47.1,-3.7,-50.5,56,23,1,30.09,29.91,0,-999,0,0.02
2013-10-21,70.4,54.5,41.0,51.9,-15.6,-52.7,53,16,1,30.13,29.99,0,-999,0,0.02
2013-10-22,68.4,60.4,55.4,36.5,-35.0,-43.8,32,3,1,30.01,29.80,0,-999,0,0.02
2013-10-23,88.9,58.9,44.2,47.0,1.9,-44.0,57,24,1,30.74,29.71,0,-999,0,8.32
2013-10-24,88.9,47.7,34.8,39.3,22.7,-54.3,57,41,1,30.89,30.02,0,-999,0,8.32
2013-10-25,53.9,47.0,37.8,34.1,27.7,12.0,58,47,29,30.37,30.14,0,-999,0,0.00
2013-10-26,59.7,43.3,29.6,36.2,21.5,-19.2,58,43,9,30.35,30.08,0,-999,0,0.00
2013-10-27,69.7,51.6,38.1,49.1,16.8,-54.4,56,32,1,30.12,30.03,0,-999,0,0.00
2013-10-28,88.9,55.1,46.7,39.1,-36.8,-49.2,35,3,1,30.91,30.09,0,-999,0,0.05
2013-10-29,73.1,58.1,47.2,54.2,-15.0,-48.9,53,15,1,30.32,30.22,0,-999,0,0.00
2013-10-30,78.0,61.3,49.5,57.9,-10.7,-47.5,52,16,1,30.28,30.14,0,-999,0,0.00
2013-10-31,88.9,64.3,54.8,51.7,-10.0,-44.2,47,13,1,30.74,29.91,0,-999,0,8.37
2013-11-1,88.9,67.5,58.6,0.0,-36.4,-41.9,1,1,1,30.53,29.68,0,-999,0,0.38
2013-11-2,88.9,58.4,47.7,49.8,-13.3,-48.6,54,16,1,30.53,29.72,0,-999,0,0.38
2013-11-3,88.9,48.7,0.0,39.6,0.7,-54.5,57,29,1,31.79,30.00,10,-5,10,0.39
2013-11-4,59.4,46.2,35.5,36.2,6.8,-56.2,59,32,1,30.52,30.35,11,3,11,0.39
2013-11-5,59.0,49.5,36.4,43.1,26.6,-9.4,56,43,12,30.54,30.42,8,3,8,0.00
2013-11-6,71.8,59.1,50.8,61.3,-0.4,-46.7,74,23,1,30.42,30.13,8,3,8,0.39
2013-11-7,72.4,57.3,46.4,53.6,-9.0,-48.5,57,20,1,30.15,29.97,9,3,9,0.39
2013-11-8,59.0,46.8,34.9,32.8,27.8,17.2,59,49,27,30.33,30.14,9,3,9,0.39
2013-11-9,60.1,46.0,30.6,35.9,23.2,-23.2,58,41,10,30.38,30.22,8,3,8,0.39
2013-11-10,71.1,52.7,39.6,41.9,30.5,-11.8,58,44,9,30.24,30.12,9,2,9,0.39
2013-11-11,60.7,45.7,33.1,34.5,26.6,6.4,60,48,27,30.36,30.17,8,2,8,0.39
2013-11-12,114.8,44.5,33.7,99.9,9.7,-56.1,100,33,1,30.46,30.07,16,0,16,0.10
2013-11-13,45.9,34.6,25.6,22.5,18.9,13.2,64,53,36,30.56,30.45,10,3,10,0.00
2013-11-14,56.9,37.2,23.4,29.9,18.5,-3.1,62,48,26,30.49,30.34,10,3,10,0.00
2013-11-15,61.6,47.1,29.0,45.8,21.1,-45.1,60,45,1,30.36,30.20,4,2,4,0.02
2013-11-16,65.9,56.4,50.8,26.0,-35.4,-46.7,22,3,1,30.28,30.20,5,2,5,0.01
2013-11-17,73.1,61.2,50.0,45.0,-28.6,-47.2,37,5,1,30.22,29.93,8,2,8,0.06
2013-11-18,75.8,66.6,54.9,55.6,7.2,-39.7,55,23,1,30.01,29.86,11,4,11,0.06
2013-11-19,127.4,49.1,40.3,99.9,28.1,24.6,100,45,32,30.28,30.00,13,4,13,0.00
2013-11-20,54.2,45.6,36.4,35.0,30.9,23.1,61,56,47,30.45,30.26,12,3,12,0.00
2013-11-21,60.1,51.9,45.9,45.3,37.3,31.5,61,57,44,30.48,30.38,8,3,8,0.00
2013-11-22,70.4,60.8,53.6,49.0,18.7,-39.4,49,31,1,30.40,30.13,10,3,10,0.00
2013-11-23,62.6,58.0,45.7,44.9,3.6,-42.7,56,26,1,30.21,30.07,10,3,10,0.00
2013-11-24,45.5,36.1,25.4,25.2,13.8,6.7,58,40,25,30.53,30.21,10,3,10,0.00
2013-11-25,44.3,33.6,20.3,17.4,12.5,8.3,66,44,23,30.57,30.33,5,2,5,0.00
2013-11-26,46.4,40.5,34.2,23.0,-32.7,-57.0,61,12,1,30.33,29.61,9,3,9,1.74
2013-11-27,47.5,41.4,28.8,29.2,-20.8,-53.3,62,22,1,30.22,29.54,10,3,10,0.43
2013-11-28,45.4,32.2,22.1,27.9,13.5,-20.9,65,47,11,30.49,30.21,6,2,6,0.00
2013-11-29,52.9,36.3,24.3,28.3,9.2,-59.9,60,36,1,30.60,30.46,8,3,8,0.00
2013-11-30,48.6,37.1,29.2,28.1,20.4,10.0,60,51,42,30.63,30.38,11,3,11,0.00
2013-12-1,57.2,42.6,31.3,40.7,18.5,-34.8,59,40,3,30.38,30.04,6,2,6,0.00
2013-12-2,58.7,45.5,32.8,42.1,-1.0,-57.8,60,30,1,30.04,29.83,6,2,6,0.00
2013-12-3,63.7,53.9,44.1,46.0,-2.3,-48.8,53,19,1,29.99,29.88,7,2,7,0.00
2013-12-4,66.6,59.8,54.7,-37.0,-41.1,-44.3,1,1,1,30.11,29.97,9,3,9,0.01
2013-12-5,67.0,63.4,59.8,-36.8,-38.9,-41.1,1,1,1,30.14,30.05,8,3,8,0.08
2013-12-6,77.4,70.9,63.2,63.3,-14.4,-39.1,100,8,1,30.10,30.01,17,5,17,2.89
2013-12-7,70.0,57.1,48.2,28.4,-7.9,-45.2,39,16,1,30.42,30.02,13,4,13,0.04
2013-12-8,48.2,40.3,36.0,28.2,-32.5,-55.8,50,13,1,30.42,30.28,11,4,11,0.05
2013-12-9,47.5,42.4,36.5,-48.7,-51.9,-55.5,1,1,1,30.28,30.05,5,2,5,0.18
2013-12-10,55.4,47.3,32.8,40.0,-18.6,-48.7,60,20,1,30.34,29.90,14,3,14,0.15
2013-12-11,75.9,35.9,25.0,75.9,7.9,-59.3,100,37,1,30.56,30.30,6,2,6,0.00
2013-12-12,48.1,34.3,24.5,26.3,5.7,-59.9,62,36,1,30.41,30.27,8,2,8,0.00
2013-12-13,52.7,36.8,22.5,32.4,17.1,-19.0,59,45,12,30.38,30.26,8,2,8,0.00
2013-12-14,51.7,44.0,40.0,29.2,-16.0,-52.5,55,20,1,30.27,29.80,13,3,13,0.76
2013-12-15,54.4,45.0,32.8,38.5,-6.9,-52.5,60,29,1,30.12,29.75,9,3,9,0.01
2013-12-16,56.2,41.1,28.1,37.5,10.5,-59.9,58,37,1,30.19,30.10,10,3,10,0.00
2013-12-17,62.3,46.2,0.0,40.3,15.7,-59.1,59,36,1,31.42,29.96,112,4,112,4.08
2013-12-18,52.0,41.2,30.4,34.0,22.8,16.6,63,49,28,30.30,30.06,8,3,8,0.00
2013-12-19,75.2,43.0,27.0,32.8,20.1,-19.6,57,41,12,30.97,30.23,11,3,11,0.00
2013-12-20,65.2,51.3,37.8,48.2,16.6,-48.0,60,36,1,30.26,30.15,12,3,12,0.00
2013-12-21,74.0,61.1,45.0,47.1,-25.3,-50.2,39,6,1,30.17,30.03,12,3,12,0.00
2013-12-22,75.2,68.0,63.7,-31.8,-36.2,-38.8,1,1,1,30.12,30.02,12,4,12,0.91
2013-12-23,75.2,60.6,49.0,75.2,-32.7,-45.1,100,4,1,30.83,30.02,9,3,9,1.60
2013-12-24,49.0,42.5,32.0,33.4,24.8,-0.1,58,50,20,30.44,30.16,10,4,10,1.60
2013-12-25,40.5,31.9,24.1,21.6,15.6,10.6,62,51,33,30.55,30.38,7,3,7,1.60
2013-12-26,52.7,40.1,31.1,30.8,23.9,7.5,60,53,37,30.38,30.25,5,2,5,1.60
2013-12-27,134.6,36.8,26.5,27.8,12.0,-35.9,59,38,4,30.47,30.34,7,2,7,0.00
2013-12-28,54.2,39.7,24.3,34.4,16.9,-37.2,100,42,4,30.66,30.11,92,2,92,6.65
2013-12-29,54.2,46.3,40.1,33.2,-44.6,-53.3,57,4,1,30.13,29.80,10,3,10,1.43
2013-12-30,55.8,44.1,33.8,30.9,-34.1,-57.2,39,8,1,30.13,29.95,7,2,7,0.00
2013-12-31,51.7,43.7,33.8,34.9,-8.1,-54.5,58,26,1,30.38,30.10,8,2,8,0.00
2014-1-1,73.8,40.6,32.0,73.8,-6.0,-58.3,100,28,1,31.05,30.15,5,2,5,0.00
2014-1-2,51.3,45.5,32.0,32.0,-40.9,-53.7,100,5,1,30.15,29.66,13,3,13,0.15